Time;durP1;ratioP1;P1;durP2;ratioP2;P2;SDS_P1;SDS_P2;PMS_P1;PMS_P2;Temp;Humidity;BMP_temperature;BMP_pressure;BME280_temperature;BME280_humidity;BME280_pressure;Samples;Min_cycle;Max_cycle;Signal;HPM_P1;HPM_P2
2021/09/14 00:01:06;;;;;;;11.97;10.77;;;;;;;17.21;85.47;100381.59;1651845;85;21069;-69
2021/09/14 00:03:32;;;;;;;12.13;10.87;;;;;;;17.22;85.58;100386.44;1675261;85;21142;-70
2021/09/14 00:06:00;;;;;;;13.13;10.43;;;;;;;17.22;85.68;100389.14;1684724;83;21071;-70
2021/09/14 00:08:26;;;;;;;13.80;12.03;;;;;;;17.22;85.79;100390.48;1657463;84;21596;-71
2021/09/14 00:10:55;;;;;;;13.57;10.80;;;;;;;17.19;85.94;100391.89;1661377;85;21580;-69
2021/09/14 00:13:21;;;;;;;13.37;11.97;;;;;;;17.18;86.14;100386.80;1671019;84;21088;-69
2021/09/14 00:15:48;;;;;;;12.57;11.37;;;;;;;17.17;86.33;100380.59;1667493;84;21117;-70
2021/09/14 00:18:16;;;;;;;13.17;10.70;;;;;;;17.17;86.52;100381.94;1663515;84;21126;-72
2021/09/14 00:20:44;;;;;;;13.47;11.50;;;;;;;17.15;86.66;100388.20;1661551;84;21517;-70
2021/09/14 00:23:10;;;;;;;12.33;10.93;;;;;;;17.13;86.75;100382.86;1660305;83;21199;-69
2021/09/14 00:25:40;;;;;;;12.10;10.57;;;;;;;17.11;86.82;100383.97;1664978;84;21411;-70
2021/09/14 00:28:09;;;;;;;12.23;10.83;;;;;;;17.09;86.87;100388.07;1664489;84;21090;-70
2021/09/14 00:30:35;;;;;;;12.57;10.27;;;;;;;17.08;86.92;100388.63;1662400;84;21062;-70
2021/09/14 00:33:02;;;;;;;13.10;10.67;;;;;;;17.05;86.95;100385.74;1662202;84;21562;-70
2021/09/14 00:35:29;;;;;;;12.20;10.83;;;;;;;17.02;86.99;100391.75;1685591;83;21082;-69
2021/09/14 00:37:57;;;;;;;11.93;10.23;;;;;;;16.99;87.02;100392.34;1659372;83;21131;-70
2021/09/14 00:40:24;;;;;;;12.03;10.30;;;;;;;16.97;87.11;100390.50;1673746;83;21614;-72
2021/09/14 00:42:51;;;;;;;11.97;10.47;;;;;;;16.95;87.09;100388.67;1655217;84;21164;-71
2021/09/14 00:45:18;;;;;;;11.13;9.93;;;;;;;16.90;87.16;100388.21;1686828;83;21633;-69
2021/09/14 00:47:45;;;;;;;11.53;10.10;;;;;;;16.90;87.11;100382.02;1659815;83;21090;-71
2021/09/14 00:50:12;;;;;;;12.67;10.77;;;;;;;16.88;87.09;100387.73;1670166;83;21541;-71
2021/09/14 00:52:40;;;;;;;12.07;10.80;;;;;;;16.86;87.13;100380.48;1665664;84;21174;-70
2021/09/14 00:55:07;;;;;;;10.83;9.73;;;;;;;16.86;87.15;100379.14;1663478;84;20963;-70
2021/09/14 00:57:36;;;;;;;11.90;10.63;;;;;;;16.85;87.17;100379.69;1690541;83;21077;-71
2021/09/14 01:00:04;;;;;;;10.97;9.87;;;;;;;16.79;87.19;100379.55;1658767;84;21051;-70
2021/09/14 01:02:31;;;;;;;12.20;10.33;;;;;;;16.75;87.23;100379.09;1671648;84;21042;-71
2021/09/14 01:04:57;;;;;;;12.80;10.40;;;;;;;16.65;87.36;100380.10;1703744;82;22224;-71
2021/09/14 01:07:25;;;;;;;14.00;10.30;;;;;;;16.59;87.50;100384.00;1680986;82;21113;-70
2021/09/14 01:09:53;;;;;;;11.10;9.87;;;;;;;16.52;87.65;100384.41;1655598;84;21062;-71
2021/09/14 01:12:21;;;;;;;13.10;10.83;;;;;;;16.49;87.81;100396.34;1671051;84;21141;-69
2021/09/14 01:14:54;;;;;;;12.07;10.80;;;;;;;16.44;87.97;100393.73;1683138;83;21565;-71
2021/09/14 01:17:21;;;;;;;12.80;10.60;;;;;;;16.43;88.22;100392.14;1684856;83;21162;-69
2021/09/14 01:19:49;;;;;;;12.47;10.60;;;;;;;16.40;88.21;100392.98;1686820;83;21051;-70
2021/09/14 01:22:16;;;;;;;11.97;10.27;;;;;;;16.39;88.37;100398.12;1669958;84;21644;-71
2021/09/14 01:24:42;;;;;;;11.93;10.23;;;;;;;16.39;88.35;100401.38;1672046;84;21091;-70
2021/09/14 01:27:11;;;;;;;12.63;10.30;;;;;;;16.32;88.80;100403.13;1692649;83;21573;-72
2021/09/14 01:32:29;;;;;;;12.53;10.53;;;;;;;16.30;88.88;100403.17;1686587;83;21112;-71
2021/09/14 01:35:09;;;;;;;11.90;10.50;;;;;;;16.30;88.82;100403.17;1662402;84;21074;-70
2021/09/14 01:37:35;;;;;;;12.73;9.50;;;;;;;16.28;88.85;100404.80;1694415;83;21577;-70
2021/09/14 01:40:04;;;;;;;13.23;9.90;;;;;;;16.27;88.76;100406.46;1687088;83;21108;-70
2021/09/14 01:42:31;;;;;;;12.23;10.43;;;;;;;16.21;88.59;100404.40;1667786;84;21169;-71
2021/09/14 01:44:57;;;;;;;10.97;9.77;;;;;;;16.17;88.52;100404.20;1665481;83;22412;-70
2021/09/14 01:47:24;;;;;;;12.17;10.13;;;;;;;16.08;88.07;100405.98;1700760;83;21095;-69
2021/09/14 01:49:51;;;;;;;11.00;9.90;;;;;;;16.03;88.08;100398.55;1697066;83;21081;-71
2021/09/14 01:52:18;;;;;;;12.03;10.73;;;;;;;16.03;88.08;100398.55;1665387;84;21127;-70
2021/09/14 01:54:45;;;;;;;11.40;9.80;;;;;;;16.03;88.29;100398.00;1671077;83;21823;-70
2021/09/14 01:57:12;;;;;;;11.90;10.67;;;;;;;16.02;88.28;100400.42;1670545;83;21911;-70
2021/09/14 01:59:40;;;;;;;11.77;10.47;;;;;;;16.00;88.30;100393.76;1701093;83;21400;-70
2021/09/14 02:02:21;;;;;;;11.93;10.07;;;;;;;15.95;88.27;100391.38;1679894;84;22253;-71
2021/09/14 02:05:06;;;;;;;12.13;9.53;;;;;;;15.91;88.17;100394.98;1665351;84;21803;-71
2021/09/14 02:40:38;;;;;;;12.97;11.13;;;;;;;15.41;89.03;100416.23;1682040;83;21832;-70
2021/09/14 02:59:11;;;;;;;13.77;11.90;;;;;;;15.33;90.05;100440.55;1664952;84;22262;-70
2021/09/14 03:01:37;;;;;;;13.13;11.53;;;;;;;15.29;90.10;100436.84;1682529;84;21768;-69
2021/09/14 03:04:08;;;;;;;14.57;12.20;;;;;;;15.29;90.22;100443.57;1695723;83;21794;-69
2021/09/14 03:06:35;;;;;;;14.00;12.30;;;;;;;15.29;90.28;100446.81;1677149;82;21771;-70
2021/09/14 03:09:03;;;;;;;13.50;11.97;;;;;;;15.29;90.37;100442.78;1702408;83;21761;-70
2021/09/14 03:11:32;;;;;;;14.87;11.90;;;;;;;15.26;90.48;100445.50;1687364;83;21901;-71
2021/09/14 03:14:02;;;;;;;14.17;12.67;;;;;;;15.23;90.59;100448.25;1680601;84;21721;-71
2021/09/14 03:16:31;;;;;;;13.73;12.20;;;;;;;15.21;90.73;100450.97;1670297;84;21843;-71
2021/09/14 03:18:59;;;;;;;15.83;12.57;;;;;;;15.20;90.79;100450.17;1682252;82;21752;-71
2021/09/14 03:21:29;;;;;;;14.27;12.43;;;;;;;15.18;90.84;100449.65;1691992;83;21805;-70
2021/09/14 03:23:57;;;;;;;12.93;11.60;;;;;;;15.18;90.94;100452.34;1669948;84;22344;-71
2021/09/14 03:26:24;;;;;;;14.97;12.20;;;;;;;15.18;90.96;100456.92;1650754;84;21846;-71
2021/09/14 03:28:51;;;;;;;13.13;11.43;;;;;;;15.18;90.98;100454.23;1684775;83;21802;-71
2021/09/14 03:31:18;;;;;;;13.10;11.43;;;;;;;15.18;91.00;100460.41;1687341;83;21736;-71
2021/09/14 03:33:46;;;;;;;14.23;11.70;;;;;;;15.19;90.98;100461.20;1683729;83;21772;-70
2021/09/14 03:36:17;;;;;;;14.53;12.30;;;;;;;15.19;90.96;100460.66;1693886;82;21819;-71
2021/09/14 03:38:44;;;;;;;15.38;11.93;;;;;;;15.18;90.94;100463.09;1693101;83;22235;-71
2021/09/14 03:41:13;;;;;;;14.00;12.23;;;;;;;15.18;90.93;100468.48;1667690;84;21113;-70
2021/09/14 03:43:42;;;;;;;14.73;11.70;;;;;;;15.19;90.93;100470.08;1664841;84;21773;-71
2021/09/14 03:46:10;;;;;;;13.03;11.60;;;;;;;15.19;90.90;100471.42;1680967;83;21753;-71
2021/09/14 03:48:38;;;;;;;13.23;11.93;;;;;;;15.20;90.85;100475.73;1682018;83;21797;-69
2021/09/14 03:51:13;;;;;;;13.77;11.80;;;;;;;15.19;90.80;100473.31;1673378;84;22281;-70
2021/09/14 03:53:53;;;;;;;14.07;11.33;;;;;;;15.21;90.76;100469.25;1651493;84;21810;-71
2021/09/14 03:56:20;;;;;;;13.50;11.20;;;;;;;15.25;90.70;100476.19;1673629;84;22408;-70
2021/09/14 03:58:48;;;;;;;13.17;11.33;;;;;;;15.25;90.67;100476.99;1679418;82;21878;-70
2021/09/14 04:01:14;;;;;;;14.43;11.60;;;;;;;15.29;90.66;100469.69;1674076;84;21811;-71
2021/09/14 04:03:50;;;;;;;14.03;10.90;;;;;;;15.32;90.61;100475.84;1682731;84;21749;-70
2021/09/14 04:09:03;;;;;;;14.30;11.23;;;;;;;15.34;90.38;100481.73;1688495;83;21792;-71
2021/09/14 04:11:35;;;;;;;12.77;11.50;;;;;;;15.32;90.32;100484.70;1682264;83;21754;-72
2021/09/14 04:14:03;;;;;;;13.57;11.33;;;;;;;15.32;90.32;100483.36;1673706;84;22411;-71
2021/09/14 04:16:30;;;;;;;13.30;11.90;;;;;;;15.35;90.43;100484.67;1654592;84;21801;-69
2021/09/14 04:18:59;;;;;;;14.77;11.80;;;;;;;15.38;90.43;100485.44;1691587;83;22265;-70
2021/09/14 04:21:26;;;;;;;13.13;11.20;;;;;;;15.43;90.41;100490.73;1686370;83;21793;-71
2021/09/14 04:23:52;;;;;;;13.10;11.00;;;;;;;15.50;90.39;100491.20;1646906;84;22390;-72
2021/09/14 04:26:20;;;;;;;13.03;11.63;;;;;;;15.59;90.33;100498.05;1683677;83;23166;-71
2021/09/14 04:28:47;;;;;;;11.73;10.53;;;;;;;15.66;90.29;100495.30;1658553;84;22267;-71
2021/09/14 04:31:14;;;;;;;12.87;10.30;;;;;;;15.77;90.05;100498.63;1686697;83;21126;-71
2021/09/14 04:33:42;;;;;;;13.40;11.63;;;;;;;15.85;89.82;100504.69;1677876;83;21752;-71
2021/09/14 04:36:09;;;;;;;11.67;10.47;;;;;;;15.96;89.61;100506.69;1661995;84;22489;-70
2021/09/14 04:38:37;;;;;;;12.97;10.67;;;;;;;16.07;89.10;100512.70;1685217;83;21546;-71
2021/09/14 04:41:06;;;;;;;13.17;10.30;;;;;;;16.12;88.38;100516.65;1674731;83;21055;-71
2021/09/14 04:43:33;;;;;;;12.00;10.47;;;;;;;16.09;87.52;100509.98;1656405;84;21043;-71
2021/09/14 04:46:02;;;;;;;12.63;11.03;;;;;;;16.11;87.34;100509.12;1702504;83;21083;-71
2021/09/14 04:48:30;;;;;;;14.07;11.00;;;;;;;16.16;87.00;100510.39;1626110;84;21493;-71
2021/09/14 04:50:58;;;;;;;13.00;11.60;;;;;;;16.21;86.71;100510.84;1674261;84;21171;-71
2021/09/14 04:53:25;;;;;;;14.77;11.30;;;;;;;16.27;86.36;100516.41;1676092;84;21927;-71
2021/09/14 04:55:53;;;;;;;13.00;10.43;;;;;;;16.31;85.85;100516.06;1690000;82;21573;-70
2021/09/14 04:58:19;;;;;;;12.83;10.60;;;;;;;16.34;85.33;100519.51;1703131;82;21588;-69
2021/09/14 05:00:46;;;;;;;12.47;11.20;;;;;;;16.30;84.68;100517.72;1683869;83;21083;-71
2021/09/14 05:03:14;;;;;;;15.93;12.27;;;;;;;16.31;84.42;100523.34;1668619;84;21090;-70
2021/09/14 05:05:41;;;;;;;13.77;11.20;;;;;;;16.29;84.20;100522.86;1685804;83;21852;-70
2021/09/14 05:08:09;;;;;;;12.83;11.23;;;;;;;16.32;84.05;100530.33;1641289;84;21020;-70
2021/09/14 05:10:39;;;;;;;12.90;11.50;;;;;;;16.36;83.95;100537.55;1673396;84;21170;-70
2021/09/14 05:13:08;;;;;;;14.43;11.13;;;;;;;16.41;83.86;100539.34;1661478;82;21038;-70
2021/09/14 05:15:36;;;;;;;14.77;11.87;;;;;;;16.41;83.74;100540.69;1673851;84;21212;-70
2021/09/14 05:18:12;;;;;;;12.83;10.83;;;;;;;16.43;83.62;100539.06;1678431;82;21047;-71
2021/09/14 05:20:45;;;;;;;16.10;12.37;;;;;;;16.43;83.57;100539.06;1686561;84;21513;-71
2021/09/14 05:23:14;;;;;;;16.83;13.03;;;;;;;16.42;83.28;100539.61;1669663;84;21635;-70
2021/09/14 05:25:44;;;;;;;14.33;11.80;;;;;;;16.43;83.16;100541.20;1683281;84;21231;-70
2021/09/14 05:28:13;;;;;;;18.73;12.23;;;;;;;16.45;83.07;100540.34;1677165;83;21109;-71
2021/09/14 05:30:43;;;;;;;14.60;11.15;;;;;;;16.49;83.05;100548.11;1673538;82;21105;-71
2021/09/14 05:33:10;;;;;;;15.40;11.60;;;;;;;16.52;82.82;100542.13;1674346;84;21069;-70
2021/09/14 05:35:46;;;;;;;14.60;11.27;;;;;;;16.60;82.84;100540.08;1685972;83;21186;-70
2021/09/14 05:38:15;;;;;;;15.87;11.73;;;;;;;16.71;82.71;100544.73;1636113;85;21076;-70
2021/09/14 05:40:43;;;;;;;12.83;11.53;;;;;;;16.82;82.28;100544.84;1670089;83;21143;-71
2021/09/14 05:43:11;;;;;;;15.03;11.80;;;;;;;16.91;81.66;100550.32;1670271;84;21117;-70
2021/09/14 05:45:39;;;;;;;16.43;11.47;;;;;;;16.99;81.29;100547.50;1657302;84;21598;-70
2021/09/14 05:48:07;;;;;;;16.93;11.90;;;;;;;17.06;80.74;100547.33;1674567;83;21122;-71
2021/09/14 05:50:36;;;;;;;15.13;10.50;;;;;;;17.13;80.17;100544.78;1661744;84;21144;-72
2021/09/14 05:53:03;;;;;;;14.73;11.00;;;;;;;17.23;79.69;100555.37;1644731;84;21618;-70
2021/09/14 05:55:30;;;;;;;14.63;10.30;;;;;;;17.37;78.80;100546.70;1663541;84;21358;-71
2021/09/14 05:57:58;;;;;;;17.20;10.90;;;;;;;17.41;77.97;100544.22;1665632;84;21062;-71
2021/09/14 06:00:26;;;;;;;16.77;10.97;;;;;;;17.48;78.09;100545.39;1663870;84;21967;-71
2021/09/14 06:02:53;;;;;;;12.27;9.53;;;;;;;17.56;78.68;100550.06;1677758;83;22231;-70
2021/09/14 06:05:20;;;;;;;12.40;10.13;;;;;;;17.64;78.42;100547.21;1686196;84;21060;-70
2021/09/14 06:07:47;;;;;;;12.50;10.20;;;;;;;17.72;78.00;100548.38;1650571;84;21532;-69
2021/09/14 06:10:14;;;;;;;14.57;10.50;;;;;;;17.80;77.96;100551.20;1687340;83;21427;-70
2021/09/14 06:12:43;;;;;;;13.27;9.50;;;;;;;17.89;77.30;100558.00;1689123;83;21111;-69
2021/09/14 06:15:11;;;;;;;13.00;10.07;;;;;;;17.98;76.93;100554.83;1670531;83;21163;-71
2021/09/14 06:17:39;;;;;;;13.20;9.30;;;;;;;18.07;75.92;100550.05;1667314;84;21137;-70
2021/09/14 06:20:08;;;;;;;12.97;9.17;;;;;;;18.16;75.10;100550.33;1655323;83;21428;-70
2021/09/14 06:22:37;;;;;;;14.63;9.48;;;;;;;18.23;74.41;100553.98;1670852;83;21537;-70
2021/09/14 06:25:06;;;;;;;12.90;10.07;;;;;;;18.31;73.50;100545.11;1658267;84;21155;-70
2021/09/14 06:27:33;;;;;;;10.63;9.30;;;;;;;18.38;72.58;100541.41;1684123;83;21084;-70
2021/09/14 06:30:01;;;;;;;10.30;8.60;;;;;;;18.48;72.26;100543.85;1650295;84;21136;-70
2021/09/14 06:32:27;;;;;;;14.70;9.17;;;;;;;18.58;71.66;100544.14;1675506;84;21109;-69
2021/09/14 06:34:57;;;;;;;11.37;9.10;;;;;;;18.69;71.32;100547.37;1665226;83;21601;-71
2021/09/14 06:37:26;;;;;;;13.87;10.40;;;;;;;18.79;70.75;100541.73;1666431;83;21445;-69
2021/09/14 06:39:54;;;;;;;13.90;10.40;;;;;;;18.90;70.30;100543.60;1696511;82;21045;-69
2021/09/14 06:42:24;;;;;;;12.53;9.63;;;;;;;19.00;70.10;100541.17;1664891;84;21184;-70
2021/09/14 06:44:53;;;;;;;13.88;9.70;;;;;;;19.08;69.73;100545.23;1660292;83;21971;-69
2021/09/14 06:47:21;;;;;;;14.00;9.73;;;;;;;19.13;69.41;100542.40;1663018;84;21574;-71
2021/09/14 06:49:48;;;;;;;16.47;10.00;;;;;;;19.18;69.37;100538.73;1666444;84;21072;-69
2021/09/14 06:52:16;;;;;;;17.43;9.97;;;;;;;19.24;68.80;100543.45;1673184;83;21054;-72
2021/09/14 06:54:43;;;;;;;12.70;9.57;;;;;;;19.25;68.38;100544.52;1686516;83;21037;-70
2021/09/14 06:57:10;;;;;;;12.90;8.80;;;;;;;19.28;67.91;100544.41;1650852;84;21136;-69
2021/09/14 06:59:38;;;;;;;12.13;8.60;;;;;;;19.29;68.27;100550.09;1704167;83;37449;-70
2021/09/14 07:02:05;;;;;;;14.80;9.87;;;;;;;19.30;68.08;100547.05;1678021;82;21058;-70
2021/09/14 07:04:32;;;;;;;15.83;9.77;;;;;;;19.34;67.81;100559.41;1686395;84;21042;-69
2021/09/14 07:06:59;;;;;;;16.00;9.60;;;;;;;19.36;67.70;100563.40;1670612;83;21103;-72
2021/09/14 07:09:26;;;;;;;14.20;8.87;;;;;;;19.47;67.88;100560.39;1683405;82;21161;-71
2021/09/14 07:11:54;;;;;;;16.23;9.73;;;;;;;19.59;67.77;100562.72;1690893;83;21059;-73
2021/09/14 07:14:20;;;;;;;11.17;8.30;;;;;;;19.62;66.33;100568.06;1660640;84;21119;-71
2021/09/14 07:16:49;;;;;;;11.13;8.67;;;;;;;19.63;66.16;100565.59;1664910;84;21691;-70
2021/09/14 07:19:16;;;;;;;11.90;8.10;;;;;;;19.67;66.12;100569.28;1697926;83;21066;-70
2021/09/14 07:21:46;;;;;;;11.67;7.67;;;;;;;19.71;65.78;100562.66;1674069;83;21999;-70
2021/09/14 07:24:13;;;;;;;12.63;8.40;;;;;;;19.72;64.49;100563.72;1690557;83;21090;-70
2021/09/14 07:26:40;;;;;;;11.27;8.07;;;;;;;19.67;64.58;100573.34;1678922;83;21153;-71
2021/09/14 07:29:08;;;;;;;12.73;7.83;;;;;;;19.67;64.81;100568.72;1657728;84;21547;-69
2021/09/14 07:31:35;;;;;;;11.43;7.10;;;;;;;19.75;63.84;100571.22;1690944;83;21037;-71
2021/09/14 07:34:02;;;;;;;9.83;6.93;;;;;;;19.78;63.52;100567.08;1649204;84;21148;-72
2021/09/14 07:36:29;;;;;;;11.87;6.30;;;;;;;19.87;63.42;100567.32;1664386;84;21690;-73
2021/09/14 07:38:55;;;;;;;8.67;4.70;;;;;;;19.99;61.76;100568.58;1664054;84;21134;-71
2021/09/14 07:41:22;;;;;;;12.10;5.57;;;;;;;20.11;59.48;100565.47;1662930;84;21579;-71
2021/09/14 07:43:48;;;;;;;8.40;5.07;;;;;;;20.15;58.86;100569.69;1669280;84;21119;-70
2021/09/14 07:46:16;;;;;;;10.23;5.40;;;;;;;20.20;59.03;100570.86;1668804;84;21142;-72
2021/09/14 07:48:44;;;;;;;8.83;5.50;;;;;;;20.26;59.04;100570.14;1658575;84;21062;-72
2021/09/14 07:51:10;;;;;;;9.60;5.37;;;;;;;20.32;58.87;100566.15;1664930;84;21079;-72
2021/09/14 07:53:37;;;;;;;13.93;6.10;;;;;;;20.39;58.80;100559.67;1652138;84;21104;-72
2021/09/14 07:56:04;;;;;;;9.67;6.00;;;;;;;20.48;58.92;100560.45;1669380;84;21185;-70
2021/09/14 07:58:31;;;;;;;9.10;5.73;;;;;;;20.59;58.58;100559.00;1691744;83;21149;-71
2021/09/14 08:00:59;;;;;;;9.33;6.07;;;;;;;20.69;58.42;100554.34;1667736;84;21085;-72
2021/09/14 08:03:26;;;;;;;9.60;5.90;;;;;;;20.76;58.45;100556.81;1688497;83;21090;-70
2021/09/14 08:05:53;;;;;;;10.57;5.90;;;;;;;20.84;58.44;100561.39;1660433;83;21543;-72
2021/09/14 08:08:20;;;;;;;9.60;4.93;;;;;;;20.96;58.46;100559.89;1666484;84;22337;-72
2021/09/14 08:10:48;;;;;;;6.73;4.93;;;;;;;21.06;57.99;100554.12;1667562;83;21055;-71
2021/09/14 08:13:16;;;;;;;6.30;4.70;;;;;;;21.13;57.31;100558.47;1668016;84;21072;-71
2021/09/14 08:15:43;;;;;;;5.30;4.07;;;;;;;21.15;57.00;100549.41;1667755;84;21588;-72
2021/09/14 08:18:10;;;;;;;10.00;4.73;;;;;;;21.20;55.56;100554.67;1666631;84;21103;-71
2021/09/14 08:20:36;;;;;;;9.37;4.90;;;;;;;21.24;55.28;100553.45;1684886;83;21585;-72
2021/09/14 08:23:03;;;;;;;8.53;4.57;;;;;;;21.26;54.49;100554.72;1667791;84;21118;-72
2021/09/14 08:25:30;;;;;;;9.00;4.73;;;;;;;21.23;54.98;100552.66;1668580;84;21066;-72
2021/09/14 08:27:57;;;;;;;6.13;4.40;;;;;;;21.28;55.01;100548.38;1666123;84;21081;-72
2021/09/14 08:30:25;;;;;;;9.07;4.57;;;;;;;21.37;54.37;100547.00;1672423;84;21069;-70
2021/09/14 08:32:53;;;;;;;9.03;4.60;;;;;;;21.47;54.43;100552.61;1673610;84;21230;-71
2021/09/14 08:35:21;;;;;;;8.07;4.30;;;;;;;21.56;53.75;100552.56;1688928;83;21118;-72
2021/09/14 08:37:47;;;;;;;11.53;3.93;;;;;;;21.63;53.45;100544.11;1685674;83;21618;-72
2021/09/14 08:40:14;;;;;;;6.50;3.90;;;;;;;21.73;53.30;100547.78;1659018;84;21073;-72
2021/09/14 08:42:41;;;;;;;10.43;4.27;;;;;;;21.82;52.98;100545.56;1687445;83;21144;-71
2021/09/14 08:45:10;;;;;;;7.33;3.63;;;;;;;21.87;52.69;100553.51;1665371;84;21082;-72
2021/09/14 08:47:38;;;;;;;7.17;3.70;;;;;;;21.94;51.95;100551.04;1686194;83;21816;-71
2021/09/14 08:50:06;;;;;;;8.20;3.77;;;;;;;22.01;51.94;100539.88;1692979;83;20976;-72
2021/09/14 08:52:33;;;;;;;5.70;3.40;;;;;;;22.17;51.26;100543.34;1681572;84;21065;-70
2021/09/14 08:55:00;;;;;;;6.27;3.30;;;;;;;22.24;50.84;100540.32;1692645;83;22292;-72
2021/09/14 08:57:27;;;;;;;7.33;3.77;;;;;;;22.25;50.16;100542.47;1687556;83;21089;-71
2021/09/14 08:59:57;;;;;;;6.17;3.57;;;;;;;22.29;49.98;100541.23;1652987;85;21130;-71
2021/09/14 09:02:24;;;;;;;9.30;3.80;;;;;;;22.36;49.63;100546.91;1678412;83;21090;-71
2021/09/14 09:05:02;;;;;;;5.27;3.20;;;;;;;22.41;49.21;100546.70;1667256;84;21015;-72
2021/09/14 09:07:34;;;;;;;6.87;3.30;;;;;;;22.46;48.88;100543.76;1664280;83;21140;-72
2021/09/14 09:10:11;;;;;;;6.73;3.33;;;;;;;22.58;48.71;100548.44;1649413;84;21566;-72
2021/09/14 09:12:47;;;;;;;6.93;3.33;;;;;;;22.62;48.02;100543.33;1712844;83;21157;-72
2021/09/14 09:15:30;;;;;;;9.87;3.63;;;;;;;22.61;47.15;100539.03;1676515;83;21056;-72
2021/09/14 09:18:11;;;;;;;6.33;2.90;;;;;;;22.60;47.43;100538.78;1668301;84;21114;-71
2021/09/14 09:20:41;;;;;;;6.23;2.90;;;;;;;22.60;46.55;100532.55;1657195;84;21113;-71
2021/09/14 09:23:10;;;;;;;5.63;2.70;;;;;;;22.62;47.26;100538.45;1693815;83;21707;-71
2021/09/14 09:25:37;;;;;;;5.53;2.97;;;;;;;22.70;46.82;100531.55;1675287;84;21133;-72
2021/09/14 09:28:18;;;;;;;6.70;3.13;;;;;;;22.82;46.06;100539.49;1660291;84;21601;-70
2021/09/14 09:30:55;;;;;;;7.05;3.60;;;;;;;22.87;45.76;100531.11;1670036;84;21597;-71
2021/09/14 09:33:27;;;;;;;8.57;3.27;;;;;;;22.88;45.91;100531.33;1672919;84;21014;-71
2021/09/14 09:36:05;;;;;;;5.77;3.00;;;;;;;22.93;46.40;100533.30;1677875;84;21449;-72
2021/09/14 09:38:34;;;;;;;8.37;3.70;;;;;;;22.98;45.97;100536.92;1668180;82;21155;-71
2021/09/14 09:41:01;;;;;;;6.20;3.30;;;;;;;23.00;45.74;100535.99;1683398;83;21087;-72
2021/09/14 09:43:31;;;;;;;5.27;3.60;;;;;;;23.02;45.97;100535.09;1684575;83;21625;-72
2021/09/14 09:46:09;;;;;;;4.97;2.70;;;;;;;23.03;45.93;100521.12;1655456;84;27052;-70
2021/09/14 09:48:37;;;;;;;4.10;2.80;;;;;;;23.06;46.06;100525.09;1657698;83;21555;-72
2021/09/14 09:51:05;;;;;;;5.33;3.33;;;;;;;23.05;44.84;100532.48;1677713;84;21208;-72
2021/09/14 09:53:33;;;;;;;5.37;3.10;;;;;;;23.05;45.24;100524.30;1696798;83;21041;-71
2021/09/14 09:56:02;;;;;;;6.73;2.93;;;;;;;23.07;46.09;100523.98;1666655;84;21547;-71
2021/09/14 09:58:29;;;;;;;6.43;3.13;;;;;;;23.10;45.12;100524.09;1668205;84;21701;-71
2021/09/14 10:01:06;;;;;;;6.30;3.10;;;;;;;23.12;45.87;100528.61;1670905;84;21055;-71
2021/09/14 10:03:33;;;;;;;5.47;3.03;;;;;;;23.16;44.58;100532.26;1681307;83;22029;-70
2021/09/14 10:06:08;;;;;;;5.63;3.20;;;;;;;23.16;44.16;100530.08;1677153;83;21066;-71
2021/09/14 10:08:31;;;;;;;7.23;3.50;;;;;;;23.15;44.88;100528.50;1671917;83;21062;-71
2021/09/14 10:10:58;;;;;;;5.33;3.10;;;;;;;23.15;45.26;100537.46;1685141;83;21050;-71
2021/09/14 10:13:39;;;;;;;5.40;3.27;;;;;;;23.21;44.70;100531.80;1671059;84;21441;-71
2021/09/14 10:16:07;;;;;;;5.97;3.08;;;;;;;23.27;44.55;100534.52;1665173;83;21900;-71
2021/09/14 10:18:34;;;;;;;9.07;3.30;;;;;;;23.30;44.60;100525.66;1667334;84;21054;-70
2021/09/14 10:21:04;;;;;;;9.63;3.60;;;;;;;23.33;44.91;100538.56;1675315;83;21078;-73
2021/09/14 10:23:38;;;;;;;4.83;2.90;;;;;;;23.36;45.46;100527.80;1680541;83;21125;-72
2021/09/14 10:26:06;;;;;;;5.87;3.40;;;;;;;23.50;45.41;100535.59;1652312;83;21082;-71
2021/09/14 10:28:45;;;;;;;7.47;3.43;;;;;;;23.65;44.64;100528.61;1692992;83;21542;-71
2021/09/14 10:31:26;;;;;;;5.50;3.20;;;;;;;23.73;44.70;100529.66;1653448;84;21246;-71
2021/09/14 10:34:10;;;;;;;6.40;3.10;;;;;;;23.84;44.13;100534.83;1652456;85;21100;-71
2021/09/14 10:36:40;;;;;;;9.33;3.40;;;;;;;23.88;43.88;100538.45;1655263;84;21422;-71
2021/09/14 10:39:22;;;;;;;9.17;3.07;;;;;;;23.83;43.88;100526.44;1671099;83;21074;-71
2021/09/14 10:41:51;;;;;;;13.70;4.22;;;;;;;23.80;43.94;100538.83;1660019;84;21118;-71
2021/09/14 10:44:28;;;;;;;5.90;3.00;;;;;;;23.80;43.94;100538.83;1685544;83;21610;-72
2021/09/14 10:47:08;;;;;;;11.83;3.90;;;;;;;23.83;44.12;100530.53;1663777;84;21337;-72
2021/09/14 10:49:58;;;;;;;6.77;3.53;;;;;;;23.88;43.59;100532.41;1686367;83;21013;-71
2021/09/14 10:52:40;;;;;;;5.87;3.00;;;;;;;23.93;43.13;100531.39;1679400;84;21079;-71
2021/09/14 10:55:14;;;;;;;7.50;3.30;;;;;;;23.94;42.30;100521.27;1667128;84;21157;-71
2021/09/14 10:57:44;;;;;;;5.53;3.10;;;;;;;23.87;42.52;100527.32;1682874;84;21094;-70
2021/09/14 11:00:15;;;;;;;4.30;3.00;;;;;;;23.81;42.03;100529.49;1673527;83;21885;-71
2021/09/14 11:02:43;;;;;;;6.03;3.40;;;;;;;23.80;42.05;100522.46;1682748;85;21062;-71
2021/09/14 11:05:10;;;;;;;5.10;2.90;;;;;;;23.83;41.85;100522.34;1681139;83;21133;-72
2021/09/14 11:07:37;;;;;;;6.00;3.20;;;;;;;23.85;41.62;100527.66;1652492;85;21152;-71
2021/09/14 11:10:11;;;;;;;5.03;2.90;;;;;;;23.86;41.51;100521.66;1668739;84;21698;-71
2021/09/14 11:12:41;;;;;;;6.27;3.60;;;;;;;23.86;41.99;100521.66;1665115;84;21528;-71
2021/09/14 11:15:11;;;;;;;5.90;3.40;;;;;;;23.83;42.21;100514.95;1666412;84;21122;-72
2021/09/14 11:17:37;;;;;;;7.77;2.93;;;;;;;23.77;42.76;100516.91;1674836;83;21106;-70
2021/09/14 11:20:18;;;;;;;6.07;2.93;;;;;;;23.77;42.69;100514.97;1666858;84;22002;-71
2021/09/14 11:22:46;;;;;;;5.23;2.97;;;;;;;23.86;42.57;100510.17;1681998;83;21214;-71
2021/09/14 11:25:22;;;;;;;9.17;3.60;;;;;;;24.09;42.69;100513.70;1676021;83;21069;-71
2021/09/14 11:28:00;;;;;;;7.07;3.27;;;;;;;24.25;42.05;100515.88;1670973;84;21090;-71
2021/09/14 11:30:27;;;;;;;4.17;3.10;;;;;;;24.37;41.65;100510.11;1688622;83;21506;-71
2021/09/14 11:32:55;;;;;;;5.87;2.90;;;;;;;24.50;41.60;100502.09;1687845;83;22002;-73
2021/09/14 11:35:22;;;;;;;4.33;3.00;;;;;;;24.54;41.22;100506.48;1685279;82;21073;-71
2021/09/14 11:37:58;;;;;;;4.70;2.97;;;;;;;24.42;40.82;100514.78;1686818;83;21026;-71
2021/09/14 11:40:26;;;;;;;5.07;3.00;;;;;;;24.17;41.26;100518.77;1667607;84;21505;-72
2021/09/14 11:43:01;;;;;;;7.20;3.50;;;;;;;23.90;42.08;100512.98;1684944;83;21115;-71
2021/09/14 11:45:32;;;;;;;4.50;2.80;;;;;;;23.74;42.36;100517.60;1650024;85;21287;-70
2021/09/14 11:48:01;;;;;;;5.45;3.12;;;;;;;23.60;43.08;100511.94;1669666;84;21093;-71
2021/09/14 11:50:33;;;;;;;4.90;2.93;;;;;;;23.58;42.89;100512.05;1662776;84;21565;-71
2021/09/14 11:53:11;;;;;;;5.07;3.20;;;;;;;23.60;43.11;100513.30;1642121;86;21102;-71
2021/09/14 11:55:44;;;;;;;7.03;3.50;;;;;;;23.60;42.80;100513.88;1662126;84;21055;-71
2021/09/14 11:58:11;;;;;;;6.73;3.40;;;;;;;23.58;42.58;100514.78;1688955;83;21162;-71
2021/09/14 12:00:46;;;;;;;7.20;2.90;;;;;;;23.56;42.18;100506.95;1667794;84;21059;-71
2021/09/14 12:03:18;;;;;;;4.23;3.00;;;;;;;23.55;42.50;100499.11;1655443;83;21096;-71
2021/09/14 12:05:42;;;;;;;6.50;3.40;;;;;;;23.61;43.13;100504.55;1684767;83;21032;-71
2021/09/14 12:08:09;;;;;;;7.07;3.00;;;;;;;23.72;43.48;100504.87;1660697;83;21225;-71
2021/09/14 12:10:46;;;;;;;4.47;2.70;;;;;;;23.81;42.38;100502.80;1684792;83;21800;-72
2021/09/14 12:13:17;;;;;;;3.57;2.50;;;;;;;23.78;42.10;100503.48;1679031;82;21070;-73
2021/09/14 12:15:46;;;;;;;5.47;2.77;;;;;;;23.73;42.07;100493.63;1684657;83;21574;-71
2021/09/14 12:18:15;;;;;;;5.23;3.00;;;;;;;23.73;42.80;100496.94;1678317;83;21546;-71
2021/09/14 12:20:43;;;;;;;6.97;2.90;;;;;;;23.82;42.97;100498.37;1676541;83;21047;-71